Terminal Aerodrome Forecast
Issued by NWS North Platte, NE

Home | Current Version | Previous Version | Text Only | Print | Product List | Glossary Off
Versions: 1 2 3 4 5 6 7 8 9 10 11 12 13 14 15 16 17 18 19 20 21 22

000
FTUS43 KLBF 251800 CCA
TAFVTN
TAF COR
KVTN 251802Z 2518/2618 07008KT P6SM -RA OVC007
      TEMPO 2518/2522 2SM TSRA BKN025CB
     FM260600 02008KT P6SM VCSH OVC015
     FM261200 33008KT 5SM BR OVC025
     FM261600 35008KT P6SM OVC025=

USA.gov is the U.S. government's official web portal to all federal, state and local government web resources and services.